Terminal Aerodrome Forecast
Issued by NWS

Home | Current Version | Previous Version | Text Only | Print | Product List | Glossary On
Versions: 1 2 3 4 5 6 7 8 9 10 11 12 13 14 15 16 17 18 19 20 21 22 23 24 25 26 27 28 29 30 31 32 33 34 35 36 37 38 39 40 41 42
000
FTUS45 KGJT 251135
TAFMTJ
TAF
KMTJ 251135Z 2512/2612 08003KT P6SM VCSH SCT070 BKN100
      TEMPO 2514/2518 -RA BKN040
     FM251800 28008G15KT P6SM VCSH SCT030 OVC050
      TEMPO 2520/2524 VRB15G30KT 5SM -TSRA SCT030 BKN040CB
     FM260400 12004KT 5SM -RA BKN040=

USA.gov is the U.S. government's official web portal to all federal, state and local government web resources and services.